logo
App data

ORCS

ORCS is an action/platformer 2D old school inspirated by classic like Castlevania and Ghosts 'n Goblins.
Store | Hub | SteamDB | Site
Developer: Pixel vs Pixel Publisher: Pixel vs Pixel
Genre: Action, Adventure, Indie
Languages: English
Tags: Indie (41), Adventure (38), Action (37), Pixel Graphics (30), Platformer (29), 2D (24), Action-Adventure (15), 2D Platformer (10), Difficult (8), Side Scroller (7)
Category: Single-player, Full controller support, Steam Trading Cards
Release date: May 20, 2016
Price: $1.99
Old userscore: 82% Owners: 20,000 .. 50,000
Followers: 683
Peak concurrent players yesterday: 2
YouTube stats: 33,834 views and 332 comments for top 50 videos uploaded last week, over 50 new videos uploaded yesterday
Playtime total: 04:00 (average) 04:09 (median)

Steam Spy is still in beta, so expect major bugs.

Owners data:

Access restricted.

This feature is only available to users with special access rights. Sorry.

If you want to proceed, you need to register or log in first and then back Steam Spy on Patreon. Look for Indie or Pro pledge.

Don't forget to use the same email as on Steam Spy!

If you've recently backed Steam Spy on Patreon, please note, that it might take around 15 minutes for your access rights to sync. In most cases you'll need to re-login on Steam Spy too.

Audience in 2 weeks:

Access restricted.

This feature is only available to users with special access rights. Sorry.

If you want to proceed, you need to register or log in first and then back Steam Spy on Patreon. Look for Indie or Pro pledge.

Don't forget to use the same email as on Steam Spy!

If you've recently backed Steam Spy on Patreon, please note, that it might take around 15 minutes for your access rights to sync. In most cases you'll need to re-login on Steam Spy too.

Peak daily concurrent players:

CCU data courtesy of SteamDB. Used with permission.

Hourly concurrent players:

Followers over time

Access restricted.

This feature is only available to users with special access rights. Sorry.

If you want to proceed, you need to register or log in first and then back Steam Spy on Patreon. Look for Indie or Pro pledge.

Don't forget to use the same email as on Steam Spy!

If you've recently backed Steam Spy on Patreon, please note, that it might take around 15 minutes for your access rights to sync. In most cases you'll need to re-login on Steam Spy too.

Views for top 50 videos on YouTube for this game:

Games similar to this one:

# Game Release date
Price
Score rank
(Userscore / Metascore)
Owners
Players
Playtime (Median)
1 It Comes Around - A Kinetic Novel Sep 29, 2016 $2.99N/A (N/A)0 .. 20,0000%00:00 (00:00)
2 Call Of The Mighty Warriors Jun 2, 2016 $0.99N/A (N/A)0 .. 20,0000%00:00 (00:00)
3 Starship Annihilator Sep 2, 2016 $0.99N/A (N/A)50,000 .. 100,0000%00:00 (00:00)
4 Super Duper Party Pooper Jun 6, 2016 $0.99N/A (N/A/40%)100,000 .. 200,0000%00:00 (00:00)
5 AIRHEART - Tales of broken Wings Jul 24, 2018 $14.99N/A (N/A/62%)20,000 .. 50,0000%00:00 (00:00)
6 DashBored Jun 13, 2016 $4.99N/A (N/A)20,000 .. 50,0000%00:00 (00:00)
7 BoomTown! Deluxe Oct 14, 2016 $1.99N/A (N/A)20,000 .. 50,0000%00:00 (00:00)
8 Bohemian Killing Jul 21, 2016 $12.99N/A (N/A/55%)0 .. 20,0000%00:00 (00:00)
9 Moonstone Tavern - A Fantasy Tavern Sim! May 13, 2016 $7.99N/A (N/A)20,000 .. 50,0000%00:00 (00:00)
10 Dinosaur Forest May 17, 2017 $1.99N/A (N/A)20,000 .. 50,0000%00:00 (00:00)
11 NORTH Apr 27, 2016 $1.99N/A (N/A)200,000 .. 500,0000%00:00 (00:00)
12 Joana's Life Sep 1, 2016 $5.99N/A (N/A)50,000 .. 100,0000%00:00 (00:00)
13 The Nest Jun 14, 2016 FreeN/A (N/A)0 .. 20,0000%00:00 (00:00)
14 Pinkman Jan 16, 2017 $0.99N/A (N/A)0 .. 20,0000%00:00 (00:00)
15 Scanner Sombre Apr 26, 2017 $5.99N/A (N/A/67%)100,000 .. 200,0000%00:00 (00:00)
16 Intensive Exposure Sep 6, 2016 $4.99N/A (N/A)0 .. 20,0000%00:00 (00:00)
17 Star Drifter Jun 1, 2016 $0.99N/A (N/A)50,000 .. 100,0000%00:00 (00:00)
18 iO Dec 5, 2014 $4.99N/A (N/A)20,000 .. 50,0000%00:00 (00:00)
19 Bermuda Mar 17, 2015 $2.99N/A (N/A)50,000 .. 100,0000%00:00 (00:00)
20 Horizon Shift May 29, 2015 $4.99N/A (N/A)100,000 .. 200,0000%00:00 (00:00)
21 Ukrainian Ninja Dec 23, 2014 FreeN/A (N/A)20,000 .. 50,0000%00:00 (00:00)
22 Super Life of Pixel Dec 20, 2018 $9.99N/A (N/A)20,000 .. 50,0000%00:00 (00:00)
23 TIMEframe Jul 7, 2015 $5.99N/A (N/A)50,000 .. 100,0000%00:00 (00:00)
24 Pix the Cat Jan 29, 2015 $9.99N/A (N/A/77%)50,000 .. 100,0000%00:00 (00:00)
25 Velocibox Sep 8, 2014 $4.99N/A (N/A)50,000 .. 100,0000%00:00 (00:00)
26 Tulpa Jan 29, 2015 $2.99N/A (N/A)50,000 .. 100,0000%00:00 (00:00)
27 Supreme: Pizza Empire Jan 9, 2015 $9.99N/A (N/A)0 .. 20,0000%00:00 (00:00)
28 Phoenix Force Nov 13, 2014 $0.49N/A (N/A)100,000 .. 200,0000%00:00 (00:00)
29 Squishy the Suicidal Pig Oct 23, 2014 $5.99N/A (N/A)200,000 .. 500,0000%00:00 (00:00)
30 A Druid's Duel Feb 25, 2015 $7.99N/A (N/A/70%)0 .. 20,0000%00:00 (00:00)
31 Chariot Nov 12, 2014 $1.69N/A (N/A/76%)50,000 .. 100,0000%00:00 (00:00)
32 Sky Mercenaries Dec 16, 2014 $9.99N/A (N/A)20,000 .. 50,0000%00:00 (00:00)
33 Ninja Pizza Girl Sep 30, 2015 $6.99N/A (N/A/82%)50,000 .. 100,0000%00:00 (00:00)
34 Chronicles of a Dark Lord: Episode 1 Tides of Fate Complete Dec 19, 2014 N/AN/A (N/A)50,000 .. 100,0000%00:00 (00:00)
35 Puddle Nov 9, 2012 $7.99N/A (N/A)50,000 .. 100,0000%00:00 (00:00)
36 Tales From Space: Mutant Blobs Attack Aug 15, 2012 $9.99N/A (N/A/83%)100,000 .. 200,0000%00:00 (00:00)
37 Retro/Grade Mar 20, 2013 $2.49N/A (N/A)50,000 .. 100,0000%00:00 (00:00)
38 All Zombies Must Die!: Scorepocalypse Apr 19, 2012 $4.99N/A (N/A)20,000 .. 50,0000%00:00 (00:00)
39 Papo & Yo Apr 18, 2013 $14.99N/A (N/A/70%)200,000 .. 500,0000%00:00 (00:00)
40 Unmechanical Aug 8, 2012 $9.99N/A (N/A/74%)100,000 .. 200,0000%00:00 (00:00)
41 Bad Hotel Oct 16, 2013 $4.99N/A (N/A)50,000 .. 100,0000%00:00 (00:00)
42 Sugar Cube: Bittersweet Factory Nov 7, 2012 $6.99N/A (N/A)20,000 .. 50,0000%00:00 (00:00)
43 BIT.TRIP BEAT Nov 2, 2010 $5.99N/A (N/A)200,000 .. 500,0000%00:00 (00:00)
44 Party of Sin Dec 13, 2012 $5.99N/A (N/A)50,000 .. 100,0000%00:00 (00:00)
45 Super Splatters Jun 26, 2013 N/AN/A (N/A/73%)50,000 .. 100,0000%00:00 (00:00)
46 Home Jun 1, 2012 $4.99N/A (N/A/69%)200,000 .. 500,0000%00:00 (00:00)
47 Ms. Splosion Man Apr 3, 2013 $9.99N/A (N/A)20,000 .. 50,0000%00:00 (00:00)
48 Ultratron Mar 18, 2013 $9.99N/A (N/A)100,000 .. 200,0000%00:00 (00:00)
49 Titan Attacks! Feb 3, 2012 $9.99N/A (N/A)50,000 .. 100,0000%00:00 (00:00)
50 Cargo Commander Nov 1, 2012 $2.99N/A (N/A)100,000 .. 200,0000%00:00 (00:00)
51 BIT.TRIP CORE Oct 2, 2012 $9.99N/A (N/A)20,000 .. 50,0000%00:00 (00:00)
52 Guns of Icarus Alliance Mar 31, 2017 $4.99N/A (N/A)100,000 .. 200,0000%00:00 (00:00)
53 Witch It Oct 22, 2020 $19.99N/A (N/A)200,000 .. 500,0001.89%00:55 (00:18)
54 The Archotek Project Apr 28, 2017 $0.99N/A (N/A)0 .. 20,0000%00:00 (00:00)
55 Introvert Quest Mar 15, 2017 $2.99N/A (N/A)100,000 .. 200,0000%00:00 (00:00)
56 Distant Space Dec 20, 2016 $0.99N/A (N/A)50,000 .. 100,0000%00:00 (00:00)
57 Child Phobia: Nightcoming Fears Dec 20, 2016 $1.99N/A (N/A)50,000 .. 100,0000%00:00 (00:00)
58 Pixel Gladiator Sep 8, 2017 $4.99N/A (N/A)20,000 .. 50,0000%00:00 (00:00)
59 Project LUX Feb 2, 2018 $24.99N/A (N/A)0 .. 20,0000%00:00 (00:00)
60 Snake Pass Mar 28, 2017 $19.99N/A (N/A/71%)200,000 .. 500,0000%00:00 (00:00)
61 GORN Jul 18, 2019 $19.99N/A (N/A/85%)200,000 .. 500,0000%00:00 (00:00)
62 Wayout Nov 4, 2016 $0.49N/A (N/A)50,000 .. 100,0000%00:00 (00:00)
63 Open Sorcery Feb 22, 2017 $3.99N/A (N/A)0 .. 20,0000%00:00 (00:00)
64 Zolg Dec 2, 2016 $0.49N/A (N/A)50,000 .. 100,0000%00:00 (00:00)
65 Monolith Jun 7, 2017 $7.99N/A (N/A/83%)100,000 .. 200,0000%00:00 (00:00)
66 99Vidas Dec 22, 2016 $12.99N/A (N/A/69%)50,000 .. 100,0000%00:00 (00:00)
67 Three Fourths Home: Extended Edition Mar 20, 2015 $4.99N/A (N/A/77%)20,000 .. 50,0000%00:00 (00:00)
68 Big Action Mega Fight! Jan 12, 2016 $1.99N/A (N/A)20,000 .. 50,0000%00:00 (00:00)
69 Rats - Time is running out! Aug 19, 2015 $4.99N/A (N/A)50,000 .. 100,0000%00:00 (00:00)
70 Inside My Radio May 11, 2015 $0.99N/A (N/A/68%)20,000 .. 50,0000%00:00 (00:00)
71 Scribble Space Jun 1, 2015 $1.99N/A (N/A)20,000 .. 50,0000%00:00 (00:00)
72 Gryphon Knight Epic Aug 20, 2015 $12.99N/A (N/A/55%)20,000 .. 50,0000%00:00 (00:00)
73 Porcunipine May 21, 2015 $9.99N/A (N/A)20,000 .. 50,0000%00:00 (00:00)
74 On A Roll 3D Feb 12, 2015 $3.99N/A (N/A)50,000 .. 100,0000%00:00 (00:00)
75 Reign of Bullets Aug 19, 2015 $9.99N/A (N/A)0 .. 20,0000%00:00 (00:00)
76 Glorkian Warrior: The Trials Of Glork Mar 24, 2015 $1.35N/A (N/A)20,000 .. 50,0000%00:00 (00:00)
77 Centauri Sector Jun 24, 2015 $4.99N/A (N/A)20,000 .. 50,0000%00:00 (00:00)
78 stratO Jun 1, 2015 $4.99N/A (N/A)0 .. 20,0000%00:00 (00:00)
79 Home is Where One Starts... May 12, 2015 $2.99N/A (N/A)20,000 .. 50,0000%00:00 (00:00)
80 It came from space and ate our brains Mar 19, 2015 $14.99N/A (N/A)200,000 .. 500,0000%00:00 (00:00)
81 Beyond Eyes Aug 11, 2015 $14.99N/A (N/A/60%)100,000 .. 200,0000%00:00 (00:00)
82 Disillusions Manga Horror Apr 6, 2013 $0.99N/A (N/A)20,000 .. 50,0000%00:00 (00:00)
83 Orbit HD Mar 18, 2015 $1.99N/A (N/A)20,000 .. 50,0000%00:00 (00:00)
84 Polyball Dec 1, 2017 $14.99N/A (N/A)100,000 .. 200,0000.7%00:04 (00:01)
85 Aviary Attorney Dec 21, 2015 $14.99N/A (N/A/77%)50,000 .. 100,0000%00:00 (00:00)
86 Mysterious Space May 15, 2015 $10N/A (N/A)0 .. 20,0000%00:00 (00:00)
87 none Nov 4, 2015 N/AN/A (N/A)20,000 .. 50,0000%00:00 (00:00)
88 Cosmophony Jul 9, 2015 $4.99N/A (N/A)0 .. 20,0000%00:00 (00:00)
89 A.I. Invasion Sep 30, 2015 $9.99N/A (N/A)0 .. 20,0000%00:00 (00:00)
90 The Adventures of Mr. Bobley Jun 30, 2015 $0.99N/A (N/A)100,000 .. 200,0000%00:00 (00:00)
91 Canabalt Apr 30, 2015 $2.99N/A (N/A)20,000 .. 50,0000%00:00 (00:00)
92 Western Press Apr 21, 2016 $4.99N/A (N/A)20,000 .. 50,0000%00:00 (00:00)
93 Spellsworn Mar 13, 2018 FreeN/A (N/A)200,000 .. 500,0000%00:00 (00:00)
94 Action Alien Jun 26, 2015 $4.99N/A (N/A)50,000 .. 100,0000%00:00 (00:00)
95 Luna Sky Oct 2, 2015 $12.99N/A (N/A)50,000 .. 100,0000%00:00 (00:00)
96 8Bit Fiesta - Party Game Sep 30, 2016 FreeN/A (N/A)20,000 .. 50,0000%00:00 (00:00)
97 AdvertCity Apr 17, 2015 $19.99N/A (N/A)0 .. 20,0000%00:00 (00:00)
98 RETSNOM Jul 23, 2015 $4.99N/A (N/A)0 .. 20,0000%00:00 (00:00)
99 Pixel Star May 22, 2015 $2.99N/A (N/A)20,000 .. 50,0000%00:00 (00:00)
100 Dead In Bermuda Aug 27, 2015 $14.99N/A (N/A)20,000 .. 50,0000%00:00 (00:00)
101 The Novelist Dec 10, 2013 $4.99N/A (N/A/66%)100,000 .. 200,0000%00:00 (00:00)
102 Survivor Squad Nov 8, 2013 $2.99N/A (N/A)100,000 .. 200,0000%00:00 (00:00)
103 Knytt Underground Oct 25, 2013 $6.99N/A (N/A)50,000 .. 100,00011.11%00:21 (00:07)
104 Montague's Mount Nov 19, 2013 $4.99N/A (N/A/39%)20,000 .. 50,0000%00:00 (00:00)
105 Escape Goat Jun 14, 2012 $4.99N/A (N/A)20,000 .. 50,0000%00:00 (00:00)
106 Ballpoint Universe - Infinite Dec 17, 2013 $3.99N/A (N/A)50,000 .. 100,0000%00:00 (00:00)
107 Constant C Mar 11, 2014 $9.99N/A (N/A/60%)0 .. 20,0000%00:00 (00:00)
108 Godus N/AN/A (N/A)50,000 .. 100,0000%00:00 (00:00)
109 Solar Flux Oct 24, 2013 $9.99N/A (N/A)100,000 .. 200,0000%00:00 (00:00)
110 Zack Zero Apr 29, 2013 $2.99N/A (N/A)50,000 .. 100,0000%00:00 (00:00)
111 Maia Nov 23, 2018 $7.74N/A (N/A)0 .. 20,0000%00:00 (00:00)
112 Element4l May 24, 2013 $8.99N/A (N/A/77%)50,000 .. 100,0000%00:00 (00:00)
113 FOTONICA Nov 6, 2014 $14.99N/A (N/A/71%)0 .. 20,0000%00:00 (00:00)
114 Super Puzzle Platformer Deluxe May 24, 2013 $7.99N/A (N/A)20,000 .. 50,0000%00:00 (00:00)
115 Gentlemen! Nov 5, 2013 $4.99N/A (N/A)20,000 .. 50,0000%00:00 (00:00)
116 Poöf Nov 8, 2013 $6.99N/A (N/A)20,000 .. 50,0000%00:00 (00:00)
117 Escape Goat 2 Mar 24, 2014 $4.99N/A (N/A/76%)50,000 .. 100,0000%00:00 (00:00)
118 Wild Island Quest Sep 4, 2015 $1.99N/A (N/A)50,000 .. 100,0000%00:00 (00:00)
119 Perraw - FPS Clone War Alpha Jan 29, 2016 $0.99N/A (N/A)0 .. 20,0000%00:00 (00:00)
120 Shmadow Nov 3, 2015 $1.99N/A (N/A)20,000 .. 50,0000%00:00 (00:00)
121 Morphine Oct 26, 2015 $2.99N/A (N/A)20,000 .. 50,0000%00:00 (00:00)
122 Moonbase 332 May 20, 2015 $4.99N/A (N/A)20,000 .. 50,0000%00:00 (00:00)
123 Days Under Custody Nov 23, 2015 $4.99N/A (N/A)20,000 .. 50,0000%00:00 (00:00)
124 Kitchen Simulator 2015 Sep 4, 2015 $0.99N/A (N/A)50,000 .. 100,0000%00:00 (00:00)
125 Earth Overclocked Dec 4, 2015 $4.99N/A (N/A)20,000 .. 50,0000%00:00 (00:00)
126 Press X to Not Die Oct 6, 2017 $2.99N/A (N/A)100,000 .. 200,00010%00:23 (00:07)
127 iZBOT Sep 1, 2015 $11.99N/A (N/A)20,000 .. 50,0000%00:00 (00:00)
128 Club Life Apr 13, 2016 $12.99N/A (N/A)0 .. 20,0000%00:00 (00:00)
129 Redemption: Eternal Quest Aug 28, 2015 $4.99N/A (N/A)100,000 .. 200,0000%00:00 (00:00)
130 Jet Set Knights Jan 1, 2016 $9.99N/A (N/A)20,000 .. 50,0000%00:00 (00:00)
131 Angry Arrows Aug 12, 2015 $4.99N/A (N/A)20,000 .. 50,0000%00:00 (00:00)
132 1,000 Heads Among the Trees Dec 11, 2015 $4.99N/A (N/A)100,000 .. 200,0000%00:00 (00:00)
133 Blaster Shooter GunGuy! Aug 10, 2015 $1.99N/A (N/A)50,000 .. 100,0000%00:00 (00:00)
134 The Purring Quest Nov 12, 2015 $0.99N/A (N/A)100,000 .. 200,0000%00:00 (00:00)
135 10 Second Ninja Mar 5, 2014 $1.99N/A (N/A/72%)50,000 .. 100,0000%00:00 (00:00)
136 Uriel's Chasm Sep 12, 2014 $4.99N/A (N/A)200,000 .. 500,0000%00:00 (00:00)
137 Labyrinthine Dreams May 26, 2015 $1.99N/A (N/A)20,000 .. 50,0000%00:00 (00:00)
138 Cosmochoria Apr 27, 2015 $9.99N/A (N/A)20,000 .. 50,0000%00:00 (00:00)
139 T.E.C. 3001 Apr 11, 2014 N/AN/A (N/A)20,000 .. 50,0000%00:00 (00:00)
140 The Promised Land Jul 11, 2012 $6.99N/A (N/A)20,000 .. 50,0000%00:00 (00:00)
141 Munin Jun 10, 2014 $4.99N/A (N/A/68%)200,000 .. 500,0000%00:00 (00:00)
142 STARWHAL Sep 29, 2014 $11.99N/A (N/A)50,000 .. 100,0000%00:00 (00:00)
143 Kromaia Oct 23, 2014 $19.99N/A (N/A/68%)20,000 .. 50,0000%00:00 (00:00)
144 Final Rush Jan 17, 2014 $4.99N/A (N/A)20,000 .. 50,0000%00:00 (00:00)
145 ReignMaker Apr 16, 2014 $14.99N/A (N/A)50,000 .. 100,0000%00:00 (00:00)
146 Full Bore May 6, 2014 $14.99N/A (N/A/72%)20,000 .. 50,0000%00:00 (00:00)
147 Autocraft Sep 20, 2017 $9.99N/A (N/A)20,000 .. 50,0000%00:00 (00:00)
148 Procyon Feb 26, 2014 $3.99N/A (N/A)20,000 .. 50,0000%00:00 (00:00)
149 Actual Sunlight Apr 3, 2014 $4.99N/A (N/A/77%)50,000 .. 100,0000%00:00 (00:00)
150 Jones On Fire Mar 14, 2013 $2.99N/A (N/A)50,000 .. 100,0000%00:00 (00:00)
151 Three Dead Zed Jul 7, 2014 $5.99N/A (N/A)50,000 .. 100,0000%00:00 (00:00)
152 Flobe Jan 23, 2016 $0.99N/A (N/A)0 .. 20,0000%00:00 (00:00)
153 Domino Sky Apr 5, 2016 $3.99N/A (N/A)50,000 .. 100,0000%00:00 (00:00)
154 10 Second Ninja X Jul 19, 2016 $9.99N/A (N/A)200,000 .. 500,0000%00:00 (00:00)
155 Wrath of Anna Apr 2, 2018 $19.99N/A (N/A)20,000 .. 50,0000%00:00 (00:00)
156 Binaries Apr 4, 2016 $9.99N/A (N/A)0 .. 20,0000%00:00 (00:00)
157 Trouble Witches Origin - Episode1 Daughters of Amalgam - Nov 21, 2016 $9.99N/A (N/A)0 .. 20,0000%00:00 (00:00)
158 Mindless Running Feb 22, 2016 $0.99N/A (N/A)20,000 .. 50,0000%00:00 (00:00)
159 Planet Diver Nov 30, 2015 $3.99N/A (N/A)0 .. 20,0000%00:00 (00:00)
160 Mimpi Dreams Mar 22, 2016 FreeN/A (N/A)20,000 .. 50,0000%00:00 (00:00)
161 Godus Wars Feb 3, 2016 $14.99N/A (N/A)50,000 .. 100,0000%00:00 (00:00)
162 Bunker Punks May 28, 2018 $2.99N/A (N/A)0 .. 20,0000%00:00 (00:00)
163 Bell Ringer Mar 6, 2016 $6.99N/A (N/A)200,000 .. 500,0000%00:00 (00:00)
164 Cube Land Arena Mar 8, 2019 $0.99N/A (N/A)20,000 .. 50,0000%00:00 (00:00)
165 PERFECT ANGLE: The puzzle game based on optical illusions Dec 22, 2015 $9.99N/A (N/A)50,000 .. 100,0000%00:00 (00:00)
166 Hero Quest: Tower Conflict Apr 13, 2016 $0.99N/A (N/A)100,000 .. 200,0000%00:00 (00:00)
167 Doodle Kingdom Jun 9, 2016 $8.99N/A (N/A)50,000 .. 100,0000%00:00 (00:00)
168 CrazyCars3D Mar 28, 2016 $2.99N/A (N/A)50,000 .. 100,0000%00:00 (00:00)
169 Boson X Sep 15, 2014 $2.99N/A (N/A)200,000 .. 500,0000%00:00 (00:00)
170 OTTTD Aug 6, 2014 $7.99N/A (N/A)50,000 .. 100,0000%00:00 (00:00)
171 TRISTOY Jan 15, 2015 $6.99N/A (N/A/49%)0 .. 20,0000%00:00 (00:00)
172 The Masterplan Jun 4, 2015 $19.99N/A (N/A/68%)100,000 .. 200,0000%00:00 (00:00)
173 Concursion Jun 6, 2014 $4.99N/A (N/A/66%)0 .. 20,0000%00:00 (00:00)
174 A City Sleeps Oct 16, 2014 $9.99N/A (N/A)20,000 .. 50,0000%00:00 (00:00)
175 Echo of the Wilds Jun 10, 2014 $6.99N/A (N/A)0 .. 20,0000%00:00 (00:00)
176 Dreaming Sarah Mar 12, 2015 $5.99N/A (N/A)200,000 .. 500,0000%00:00 (00:00)
177 Iron Fisticle Sep 16, 2014 $8.99N/A (N/A)20,000 .. 50,0000%00:00 (00:00)
178 Captain Forever Remix Jun 3, 2016 $9.99N/A (N/A)20,000 .. 50,0000%00:00 (00:00)
179 Fancy Skulls Jun 16, 2014 $8.99N/A (N/A)20,000 .. 50,0000%00:00 (00:00)
180 Frederic: Resurrection of Music May 16, 2014 $0.5N/A (N/A)100,000 .. 200,0000%00:00 (00:00)
181 Curses 'N Chaos Aug 18, 2015 $9.99N/A (N/A)20,000 .. 50,0000%00:00 (00:00)
182 Frederic: Evil Strikes Back May 23, 2014 $0.79N/A (N/A)50,000 .. 100,0000%00:00 (00:00)
183 Back to Bed Aug 6, 2014 $5.99N/A (N/A)500,000 .. 1,000,0000%00:00 (00:00)
184 Rhythm Destruction Jun 16, 2014 $4.99N/A (N/A)50,000 .. 100,0000%00:00 (00:00)
185 NEON STRUCT May 20, 2015 $17.99N/A (N/A/62%)50,000 .. 100,0000%00:00 (00:00)

Tags over time:

Access restricted.

This feature is only available to users with special access rights. Sorry.

If you want to proceed, you need to register or log in first and then back Steam Spy on Patreon. Look for Indie or Pro pledge.

Don't forget to use the same email as on Steam Spy!

If you've recently backed Steam Spy on Patreon, please note, that it might take around 15 minutes for your access rights to sync. In most cases you'll need to re-login on Steam Spy too.

Owners of this game also own:

Access restricted.

This feature is only available to users with special access rights. Sorry.

If you want to proceed, you need to register or log in first and then back Steam Spy on Patreon. Look for Indie or Pro pledge.

Don't forget to use the same email as on Steam Spy!

If you've recently backed Steam Spy on Patreon, please note, that it might take around 15 minutes for your access rights to sync. In most cases you'll need to re-login on Steam Spy too.

Playtime distribution:

Access restricted.

This feature is only available to users with special access rights. Sorry.

If you want to proceed, you need to register or log in first and then back Steam Spy on Patreon. Look for Indie or Pro pledge.

Don't forget to use the same email as on Steam Spy!

If you've recently backed Steam Spy on Patreon, please note, that it might take around 15 minutes for your access rights to sync. In most cases you'll need to re-login on Steam Spy too.

Playtime (2 weeks):

Access restricted.

This feature is only available to users with special access rights. Sorry.

If you want to proceed, you need to register or log in first and then back Steam Spy on Patreon. Look for Indie or Pro pledge.

Don't forget to use the same email as on Steam Spy!

If you've recently backed Steam Spy on Patreon, please note, that it might take around 15 minutes for your access rights to sync. In most cases you'll need to re-login on Steam Spy too.

User reviews:

Login required.

Please register or log in to see this information.